sensor_id;sensor_type;location;lat;lon;timestamp;P1;durP1;ratioP1;P2;durP2;ratioP2
22005;SDS011;11167;46.988;15.470;2023-04-24T00:02:21;2.35;;;2.15;;
22005;SDS011;11167;46.988;15.470;2023-04-24T00:04:23;2.60;;;2.17;;
22005;SDS011;11167;46.988;15.470;2023-04-24T00:06:26;2.75;;;2.12;;
22005;SDS011;11167;46.988;15.470;2023-04-24T00:08:29;2.52;;;2.22;;
22005;SDS011;11167;46.988;15.470;2023-04-24T00:10:30;2.70;;;2.12;;
22005;SDS011;11167;46.988;15.470;2023-04-24T00:12:31;3.52;;;2.40;;
22005;SDS011;11167;46.988;15.470;2023-04-24T00:14:32;2.70;;;2.12;;
22005;SDS011;11167;46.988;15.470;2023-04-24T00:16:35;3.50;;;2.47;;
22005;SDS011;11167;46.988;15.470;2023-04-24T00:18:36;2.72;;;2.00;;
22005;SDS011;11167;46.988;15.470;2023-04-24T00:20:37;2.83;;;2.30;;
22005;SDS011;11167;46.988;15.470;2023-04-24T00:22:38;2.40;;;2.20;;
22005;SDS011;11167;46.988;15.470;2023-04-24T00:24:40;3.40;;;2.12;;
22005;SDS011;11167;46.988;15.470;2023-04-24T00:26:41;4.75;;;2.40;;
22005;SDS011;11167;46.988;15.470;2023-04-24T00:28:43;2.58;;;2.37;;
22005;SDS011;11167;46.988;15.470;2023-04-24T00:30:44;2.98;;;2.30;;
22005;SDS011;11167;46.988;15.470;2023-04-24T00:32:45;3.75;;;2.30;;
22005;SDS011;11167;46.988;15.470;2023-04-24T00:34:47;2.40;;;2.10;;
22005;SDS011;11167;46.988;15.470;2023-04-24T00:36:48;2.80;;;2.10;;
22005;SDS011;11167;46.988;15.470;2023-04-24T00:38:53;2.27;;;1.90;;
22005;SDS011;11167;46.988;15.470;2023-04-24T00:40:55;3.02;;;2.10;;
22005;SDS011;11167;46.988;15.470;2023-04-24T00:42:56;3.12;;;1.90;;
22005;SDS011;11167;46.988;15.470;2023-04-24T00:44:57;2.05;;;1.85;;
22005;SDS011;11167;46.988;15.470;2023-04-24T00:46:59;2.15;;;1.87;;
22005;SDS011;11167;46.988;15.470;2023-04-24T00:49:01;2.27;;;2.08;;
22005;SDS011;11167;46.988;15.470;2023-04-24T00:51:03;2.17;;;1.98;;
22005;SDS011;11167;46.988;15.470;2023-04-24T00:53:04;2.37;;;1.87;;
22005;SDS011;11167;46.988;15.470;2023-04-24T00:55:06;2.52;;;2.15;;
22005;SDS011;11167;46.988;15.470;2023-04-24T00:57:08;2.37;;;2.12;;
22005;SDS011;11167;46.988;15.470;2023-04-24T00:59:09;2.85;;;2.20;;
22005;SDS011;11167;46.988;15.470;2023-04-24T01:01:12;2.08;;;1.87;;
22005;SDS011;11167;46.988;15.470;2023-04-24T01:03:13;2.72;;;2.08;;
22005;SDS011;11167;46.988;15.470;2023-04-24T01:05:15;2.35;;;2.02;;
22005;SDS011;11167;46.988;15.470;2023-04-24T01:07:19;3.37;;;2.08;;
22005;SDS011;11167;46.988;15.470;2023-04-24T01:09:21;2.47;;;2.15;;
22005;SDS011;11167;46.988;15.470;2023-04-24T01:11:24;2.75;;;2.20;;
22005;SDS011;11167;46.988;15.470;2023-04-24T01:13:26;3.30;;;2.17;;
22005;SDS011;11167;46.988;15.470;2023-04-24T01:15:28;2.80;;;2.17;;
22005;SDS011;11167;46.988;15.470;2023-04-24T01:17:29;2.27;;;2.08;;
22005;SDS011;11167;46.988;15.470;2023-04-24T01:19:31;2.47;;;2.05;;
22005;SDS011;11167;46.988;15.470;2023-04-24T01:21:34;2.52;;;1.95;;
22005;SDS011;11167;46.988;15.470;2023-04-24T01:23:37;2.77;;;2.35;;
22005;SDS011;11167;46.988;15.470;2023-04-24T01:25:39;2.50;;;2.15;;
22005;SDS011;11167;46.988;15.470;2023-04-24T01:27:40;2.35;;;2.10;;
22005;SDS011;11167;46.988;15.470;2023-04-24T01:29:41;2.72;;;2.42;;
22005;SDS011;11167;46.988;15.470;2023-04-24T01:31:42;2.58;;;2.20;;
22005;SDS011;11167;46.988;15.470;2023-04-24T01:33:43;2.20;;;2.00;;
22005;SDS011;11167;46.988;15.470;2023-04-24T01:35:45;2.62;;;2.35;;
22005;SDS011;11167;46.988;15.470;2023-04-24T01:37:46;2.60;;;2.05;;
22005;SDS011;11167;46.988;15.470;2023-04-24T01:39:47;2.70;;;2.15;;
22005;SDS011;11167;46.988;15.470;2023-04-24T01:41:48;2.85;;;2.30;;
22005;SDS011;11167;46.988;15.470;2023-04-24T01:43:50;3.40;;;2.30;;
22005;SDS011;11167;46.988;15.470;2023-04-24T01:45:53;2.45;;;2.10;;
22005;SDS011;11167;46.988;15.470;2023-04-24T01:47:53;2.50;;;2.10;;
22005;SDS011;11167;46.988;15.470;2023-04-24T01:49:56;3.35;;;2.10;;
22005;SDS011;11167;46.988;15.470;2023-04-24T01:51:57;2.87;;;2.33;;
22005;SDS011;11167;46.988;15.470;2023-04-24T01:53:58;2.30;;;2.10;;
22005;SDS011;11167;46.988;15.470;2023-04-24T01:56:00;2.60;;;2.40;;
22005;SDS011;11167;46.988;15.470;2023-04-24T01:58:03;1.98;;;1.80;;
22005;SDS011;11167;46.988;15.470;2023-04-24T02:00:05;2.20;;;2.00;;
22005;SDS011;11167;46.988;15.470;2023-04-24T02:02:07;2.37;;;1.80;;
22005;SDS011;11167;46.988;15.470;2023-04-24T02:04:08;2.90;;;2.27;;
22005;SDS011;11167;46.988;15.470;2023-04-24T02:06:10;3.00;;;2.30;;
22005;SDS011;11167;46.988;15.470;2023-04-24T02:08:11;2.33;;;2.08;;
22005;SDS011;11167;46.988;15.470;2023-04-24T02:10:13;2.85;;;2.25;;
22005;SDS011;11167;46.988;15.470;2023-04-24T02:12:17;3.27;;;2.22;;
22005;SDS011;11167;46.988;15.470;2023-04-24T02:14:18;2.00;;;1.90;;
22005;SDS011;11167;46.988;15.470;2023-04-24T02:16:19;2.60;;;2.00;;
22005;SDS011;11167;46.988;15.470;2023-04-24T02:18:20;2.40;;;2.20;;
22005;SDS011;11167;46.988;15.470;2023-04-24T02:20:23;3.60;;;2.10;;
22005;SDS011;11167;46.988;15.470;2023-04-24T02:22:24;2.15;;;1.95;;
22005;SDS011;11167;46.988;15.470;2023-04-24T02:24:25;2.55;;;1.98;;
22005;SDS011;11167;46.988;15.470;2023-04-24T02:26:26;3.08;;;2.00;;
22005;SDS011;11167;46.988;15.470;2023-04-24T02:28:27;2.10;;;1.70;;
22005;SDS011;11167;46.988;15.470;2023-04-24T02:30:28;2.45;;;2.00;;
22005;SDS011;11167;46.988;15.470;2023-04-24T02:32:29;2.70;;;2.10;;
22005;SDS011;11167;46.988;15.470;2023-04-24T02:34:31;2.17;;;1.98;;
22005;SDS011;11167;46.988;15.470;2023-04-24T02:36:32;2.20;;;2.00;;
22005;SDS011;11167;46.988;15.470;2023-04-24T02:38:33;2.17;;;1.98;;
22005;SDS011;11167;46.988;15.470;2023-04-24T02:40:34;4.22;;;2.30;;
22005;SDS011;11167;46.988;15.470;2023-04-24T02:42:35;2.60;;;2.12;;
22005;SDS011;11167;46.988;15.470;2023-04-24T02:44:36;2.58;;;2.17;;
22005;SDS011;11167;46.988;15.470;2023-04-24T02:46:37;2.42;;;2.22;;
22005;SDS011;11167;46.988;15.470;2023-04-24T02:48:38;2.77;;;2.20;;
22005;SDS011;11167;46.988;15.470;2023-04-24T02:50:39;2.20;;;1.90;;
22005;SDS011;11167;46.988;15.470;2023-04-24T02:52:41;2.35;;;1.80;;
22005;SDS011;11167;46.988;15.470;2023-04-24T02:54:42;2.00;;;1.80;;
22005;SDS011;11167;46.988;15.470;2023-04-24T02:56:43;2.65;;;2.02;;
22005;SDS011;11167;46.988;15.470;2023-04-24T02:58:44;2.17;;;1.92;;
22005;SDS011;11167;46.988;15.470;2023-04-24T03:00:45;2.20;;;1.92;;
22005;SDS011;11167;46.988;15.470;2023-04-24T03:02:47;2.47;;;1.80;;
22005;SDS011;11167;46.988;15.470;2023-04-24T03:04:50;1.90;;;1.77;;
22005;SDS011;11167;46.988;15.470;2023-04-24T03:06:52;3.37;;;2.40;;
22005;SDS011;11167;46.988;15.470;2023-04-24T03:08:55;3.05;;;2.02;;
22005;SDS011;11167;46.988;15.470;2023-04-24T03:10:56;2.40;;;2.20;;
22005;SDS011;11167;46.988;15.470;2023-04-24T03:12:57;2.00;;;1.80;;
22005;SDS011;11167;46.988;15.470;2023-04-24T03:14:58;2.33;;;1.70;;
22005;SDS011;11167;46.988;15.470;2023-04-24T03:16:59;2.75;;;2.05;;
22005;SDS011;11167;46.988;15.470;2023-04-24T03:19:00;2.90;;;2.20;;
22005;SDS011;11167;46.988;15.470;2023-04-24T03:21:02;2.20;;;1.87;;
22005;SDS011;11167;46.988;15.470;2023-04-24T03:23:03;2.40;;;2.05;;
22005;SDS011;11167;46.988;15.470;2023-04-24T03:25:05;2.05;;;1.85;;
22005;SDS011;11167;46.988;15.470;2023-04-24T03:27:07;2.50;;;1.77;;
22005;SDS011;11167;46.988;15.470;2023-04-24T03:29:08;2.95;;;2.10;;
22005;SDS011;11167;46.988;15.470;2023-04-24T03:31:09;2.65;;;2.02;;
22005;SDS011;11167;46.988;15.470;2023-04-24T03:33:11;2.17;;;1.98;;
22005;SDS011;11167;46.988;15.470;2023-04-24T03:35:12;2.42;;;2.20;;
22005;SDS011;11167;46.988;15.470;2023-04-24T03:37:13;2.33;;;2.00;;
22005;SDS011;11167;46.988;15.470;2023-04-24T03:39:14;2.27;;;1.87;;
22005;SDS011;11167;46.988;15.470;2023-04-24T03:41:15;2.12;;;1.92;;
22005;SDS011;11167;46.988;15.470;2023-04-24T03:43:16;2.42;;;2.05;;
22005;SDS011;11167;46.988;15.470;2023-04-24T03:45:17;2.08;;;1.90;;
22005;SDS011;11167;46.988;15.470;2023-04-24T03:47:18;2.10;;;1.87;;
22005;SDS011;11167;46.988;15.470;2023-04-24T03:49:19;2.30;;;2.10;;
22005;SDS011;11167;46.988;15.470;2023-04-24T03:51:21;2.22;;;1.82;;
22005;SDS011;11167;46.988;15.470;2023-04-24T03:53:23;2.33;;;1.80;;
22005;SDS011;11167;46.988;15.470;2023-04-24T03:55:24;2.83;;;2.10;;
22005;SDS011;11167;46.988;15.470;2023-04-24T03:57:25;2.87;;;2.00;;
22005;SDS011;11167;46.988;15.470;2023-04-24T03:59:26;2.95;;;2.17;;
22005;SDS011;11167;46.988;15.470;2023-04-24T04:01:27;1.87;;;1.77;;
22005;SDS011;11167;46.988;15.470;2023-04-24T04:03:28;2.42;;;1.95;;
22005;SDS011;11167;46.988;15.470;2023-04-24T04:05:30;2.33;;;2.12;;
22005;SDS011;11167;46.988;15.470;2023-04-24T04:07:31;2.55;;;2.08;;
22005;SDS011;11167;46.988;15.470;2023-04-24T04:09:32;3.12;;;2.15;;
22005;SDS011;11167;46.988;15.470;2023-04-24T04:11:34;2.20;;;2.00;;
22005;SDS011;11167;46.988;15.470;2023-04-24T04:13:35;2.20;;;1.85;;
22005;SDS011;11167;46.988;15.470;2023-04-24T04:15:36;2.35;;;1.95;;
22005;SDS011;11167;46.988;15.470;2023-04-24T04:17:38;2.35;;;2.15;;
22005;SDS011;11167;46.988;15.470;2023-04-24T04:19:39;2.87;;;2.17;;
22005;SDS011;11167;46.988;15.470;2023-04-24T04:21:40;2.35;;;2.10;;
22005;SDS011;11167;46.988;15.470;2023-04-24T04:23:41;2.30;;;2.10;;
22005;SDS011;11167;46.988;15.470;2023-04-24T04:25:42;2.52;;;1.90;;
22005;SDS011;11167;46.988;15.470;2023-04-24T04:27:43;1.98;;;1.77;;
22005;SDS011;11167;46.988;15.470;2023-04-24T04:29:44;2.27;;;1.80;;
22005;SDS011;11167;46.988;15.470;2023-04-24T04:31:45;2.20;;;2.00;;
22005;SDS011;11167;46.988;15.470;2023-04-24T04:33:46;2.10;;;1.90;;
22005;SDS011;11167;46.988;15.470;2023-04-24T04:35:47;1.90;;;1.70;;
22005;SDS011;11167;46.988;15.470;2023-04-24T04:37:50;2.33;;;2.12;;
22005;SDS011;11167;46.988;15.470;2023-04-24T04:39:51;2.20;;;2.00;;
22005;SDS011;11167;46.988;15.470;2023-04-24T04:41:54;2.15;;;1.95;;
22005;SDS011;11167;46.988;15.470;2023-04-24T04:43:55;2.25;;;2.05;;
22005;SDS011;11167;46.988;15.470;2023-04-24T04:45:58;2.10;;;1.90;;
22005;SDS011;11167;46.988;15.470;2023-04-24T04:48:01;2.15;;;1.80;;
22005;SDS011;11167;46.988;15.470;2023-04-24T04:50:03;3.33;;;1.95;;
22005;SDS011;11167;46.988;15.470;2023-04-24T04:52:05;2.22;;;2.02;;
22005;SDS011;11167;46.988;15.470;2023-04-24T04:54:06;3.12;;;1.75;;
22005;SDS011;11167;46.988;15.470;2023-04-24T04:56:08;2.45;;;1.80;;
22005;SDS011;11167;46.988;15.470;2023-04-24T04:58:09;2.33;;;1.98;;
22005;SDS011;11167;46.988;15.470;2023-04-24T05:00:10;2.85;;;1.90;;
22005;SDS011;11167;46.988;15.470;2023-04-24T05:02:12;2.00;;;1.72;;
22005;SDS011;11167;46.988;15.470;2023-04-24T05:04:13;1.98;;;1.77;;
22005;SDS011;11167;46.988;15.470;2023-04-24T05:06:14;2.75;;;1.90;;
22005;SDS011;11167;46.988;15.470;2023-04-24T05:08:15;2.30;;;1.82;;
22005;SDS011;11167;46.988;15.470;2023-04-24T05:10:16;2.02;;;1.85;;
22005;SDS011;11167;46.988;15.470;2023-04-24T05:12:17;8.03;;;2.00;;
22005;SDS011;11167;46.988;15.470;2023-04-24T05:14:18;2.50;;;2.30;;
22005;SDS011;11167;46.988;15.470;2023-04-24T05:16:20;2.25;;;2.00;;
22005;SDS011;11167;46.988;15.470;2023-04-24T05:18:21;2.33;;;2.00;;
22005;SDS011;11167;46.988;15.470;2023-04-24T05:20:22;2.10;;;1.90;;
22005;SDS011;11167;46.988;15.470;2023-04-24T05:22:23;3.87;;;2.40;;
22005;SDS011;11167;46.988;15.470;2023-04-24T05:24:24;2.70;;;2.20;;
22005;SDS011;11167;46.988;15.470;2023-04-24T05:26:25;3.42;;;2.50;;
22005;SDS011;11167;46.988;15.470;2023-04-24T05:28:26;2.98;;;2.35;;
22005;SDS011;11167;46.988;15.470;2023-04-24T05:30:28;2.35;;;2.10;;
22005;SDS011;11167;46.988;15.470;2023-04-24T05:32:29;2.50;;;2.30;;
22005;SDS011;11167;46.988;15.470;2023-04-24T05:34:30;3.75;;;2.55;;
22005;SDS011;11167;46.988;15.470;2023-04-24T05:36:32;2.50;;;2.05;;
22005;SDS011;11167;46.988;15.470;2023-04-24T05:38:33;3.25;;;2.60;;
22005;SDS011;11167;46.988;15.470;2023-04-24T05:40:34;2.92;;;2.35;;
22005;SDS011;11167;46.988;15.470;2023-04-24T05:42:35;3.67;;;2.40;;
22005;SDS011;11167;46.988;15.470;2023-04-24T05:44:36;3.25;;;2.33;;
22005;SDS011;11167;46.988;15.470;2023-04-24T05:46:37;2.65;;;2.05;;
22005;SDS011;11167;46.988;15.470;2023-04-24T05:48:38;2.62;;;2.30;;
22005;SDS011;11167;46.988;15.470;2023-04-24T05:50:39;3.00;;;2.20;;
22005;SDS011;11167;46.988;15.470;2023-04-24T05:52:40;3.85;;;2.45;;
22005;SDS011;11167;46.988;15.470;2023-04-24T05:54:41;2.35;;;2.15;;
22005;SDS011;11167;46.988;15.470;2023-04-24T05:56:42;2.83;;;2.10;;
22005;SDS011;11167;46.988;15.470;2023-04-24T05:58:43;2.60;;;2.22;;
22005;SDS011;11167;46.988;15.470;2023-04-24T06:00:46;2.87;;;2.58;;
22005;SDS011;11167;46.988;15.470;2023-04-24T06:02:47;3.62;;;2.70;;
22005;SDS011;11167;46.988;15.470;2023-04-24T06:04:49;3.55;;;3.00;;
22005;SDS011;11167;46.988;15.470;2023-04-24T06:06:50;4.70;;;3.40;;
22005;SDS011;11167;46.988;15.470;2023-04-24T06:08:52;4.65;;;3.42;;
22005;SDS011;11167;46.988;15.470;2023-04-24T06:10:54;6.78;;;4.40;;
22005;SDS011;11167;46.988;15.470;2023-04-24T06:12:55;4.53;;;3.77;;
22005;SDS011;11167;46.988;15.470;2023-04-24T06:15:00;5.90;;;4.50;;
22005;SDS011;11167;46.988;15.470;2023-04-24T06:17:01;6.22;;;4.20;;
22005;SDS011;11167;46.988;15.470;2023-04-24T06:19:03;6.70;;;4.15;;
22005;SDS011;11167;46.988;15.470;2023-04-24T06:21:04;4.87;;;3.98;;
22005;SDS011;11167;46.988;15.470;2023-04-24T06:23:05;6.12;;;4.20;;
22005;SDS011;11167;46.988;15.470;2023-04-24T06:25:07;5.22;;;4.42;;
22005;SDS011;11167;46.988;15.470;2023-04-24T06:27:09;4.70;;;3.60;;
22005;SDS011;11167;46.988;15.470;2023-04-24T06:29:10;5.50;;;4.08;;
22005;SDS011;11167;46.988;15.470;2023-04-24T06:31:11;5.12;;;3.92;;
22005;SDS011;11167;46.988;15.470;2023-04-24T06:33:12;5.83;;;4.03;;
22005;SDS011;11167;46.988;15.470;2023-04-24T06:35:13;4.33;;;3.70;;
22005;SDS011;11167;46.988;15.470;2023-04-24T06:37:14;6.50;;;3.87;;
22005;SDS011;11167;46.988;15.470;2023-04-24T06:39:16;7.15;;;3.70;;
22005;SDS011;11167;46.988;15.470;2023-04-24T06:41:17;5.87;;;3.75;;
22005;SDS011;11167;46.988;15.470;2023-04-24T06:43:18;5.37;;;3.90;;
22005;SDS011;11167;46.988;15.470;2023-04-24T06:45:20;6.17;;;3.45;;
22005;SDS011;11167;46.988;15.470;2023-04-24T06:47:21;4.33;;;3.50;;
22005;SDS011;11167;46.988;15.470;2023-04-24T06:49:23;5.65;;;3.90;;
22005;SDS011;11167;46.988;15.470;2023-04-24T06:51:24;3.65;;;2.85;;
22005;SDS011;11167;46.988;15.470;2023-04-24T06:53:27;4.80;;;3.40;;
22005;SDS011;11167;46.988;15.470;2023-04-24T06:55:28;4.28;;;3.30;;
22005;SDS011;11167;46.988;15.470;2023-04-24T06:57:29;4.67;;;3.40;;
22005;SDS011;11167;46.988;15.470;2023-04-24T06:59:30;4.80;;;3.70;;
22005;SDS011;11167;46.988;15.470;2023-04-24T07:01:33;5.37;;;3.40;;
22005;SDS011;11167;46.988;15.470;2023-04-24T07:03:34;3.90;;;3.12;;
22005;SDS011;11167;46.988;15.470;2023-04-24T07:05:35;4.58;;;3.37;;
22005;SDS011;11167;46.988;15.470;2023-04-24T07:07:38;3.42;;;3.12;;
22005;SDS011;11167;46.988;15.470;2023-04-24T07:09:40;5.47;;;3.55;;
22005;SDS011;11167;46.988;15.470;2023-04-24T07:11:42;5.15;;;3.50;;
22005;SDS011;11167;46.988;15.470;2023-04-24T07:13:45;4.75;;;3.87;;
22005;SDS011;11167;46.988;15.470;2023-04-24T07:15:47;5.00;;;3.72;;
22005;SDS011;11167;46.988;15.470;2023-04-24T07:17:50;4.60;;;3.30;;
22005;SDS011;11167;46.988;15.470;2023-04-24T07:19:51;5.37;;;3.25;;
22005;SDS011;11167;46.988;15.470;2023-04-24T07:21:52;3.98;;;3.30;;
22005;SDS011;11167;46.988;15.470;2023-04-24T07:23:55;5.05;;;3.70;;
22005;SDS011;11167;46.988;15.470;2023-04-24T07:25:56;4.58;;;3.20;;
22005;SDS011;11167;46.988;15.470;2023-04-24T07:27:59;3.50;;;3.20;;
22005;SDS011;11167;46.988;15.470;2023-04-24T07:30:00;4.42;;;3.70;;
22005;SDS011;11167;46.988;15.470;2023-04-24T07:32:02;4.75;;;3.30;;
22005;SDS011;11167;46.988;15.470;2023-04-24T07:34:03;3.92;;;3.02;;
22005;SDS011;11167;46.988;15.470;2023-04-24T07:36:04;4.03;;;3.33;;
22005;SDS011;11167;46.988;15.470;2023-04-24T07:38:05;3.52;;;3.12;;
22005;SDS011;11167;46.988;15.470;2023-04-24T07:40:07;3.95;;;3.12;;
22005;SDS011;11167;46.988;15.470;2023-04-24T07:42:08;4.50;;;3.20;;
22005;SDS011;11167;46.988;15.470;2023-04-24T07:44:09;3.85;;;3.35;;
22005;SDS011;11167;46.988;15.470;2023-04-24T07:46:10;4.15;;;3.10;;
22005;SDS011;11167;46.988;15.470;2023-04-24T07:48:11;3.30;;;3.00;;
22005;SDS011;11167;46.988;15.470;2023-04-24T07:50:14;3.30;;;3.00;;
22005;SDS011;11167;46.988;15.470;2023-04-24T07:52:15;3.00;;;2.70;;
22005;SDS011;11167;46.988;15.470;2023-04-24T07:54:16;3.58;;;2.83;;
22005;SDS011;11167;46.988;15.470;2023-04-24T07:56:17;3.87;;;3.20;;
22005;SDS011;11167;46.988;15.470;2023-04-24T07:58:18;5.20;;;3.22;;
22005;SDS011;11167;46.988;15.470;2023-04-24T08:00:20;4.03;;;3.25;;
22005;SDS011;11167;46.988;15.470;2023-04-24T08:02:21;4.35;;;3.15;;
22005;SDS011;11167;46.988;15.470;2023-04-24T08:04:24;5.33;;;2.98;;
22005;SDS011;11167;46.988;15.470;2023-04-24T08:06:25;4.72;;;3.10;;
22005;SDS011;11167;46.988;15.470;2023-04-24T08:08:28;4.03;;;3.13;;
22005;SDS011;11167;46.988;15.470;2023-04-24T08:10:29;4.62;;;3.12;;
22005;SDS011;11167;46.988;15.470;2023-04-24T08:12:30;5.50;;;3.15;;
22005;SDS011;11167;46.988;15.470;2023-04-24T08:14:32;3.87;;;3.20;;
22005;SDS011;11167;46.988;15.470;2023-04-24T08:16:33;5.20;;;3.30;;
22005;SDS011;11167;46.988;15.470;2023-04-24T08:18:34;4.37;;;3.40;;
22005;SDS011;11167;46.988;15.470;2023-04-24T08:20:36;5.17;;;3.60;;
22005;SDS011;11167;46.988;15.470;2023-04-24T08:22:37;4.90;;;3.30;;
22005;SDS011;11167;46.988;15.470;2023-04-24T08:24:38;5.50;;;3.77;;
22005;SDS011;11167;46.988;15.470;2023-04-24T08:26:39;4.12;;;3.10;;
22005;SDS011;11167;46.988;15.470;2023-04-24T08:28:40;4.50;;;3.15;;
22005;SDS011;11167;46.988;15.470;2023-04-24T08:30:41;3.92;;;2.77;;
22005;SDS011;11167;46.988;15.470;2023-04-24T08:32:42;4.67;;;3.30;;
22005;SDS011;11167;46.988;15.470;2023-04-24T08:34:44;5.62;;;3.37;;
22005;SDS011;11167;46.988;15.470;2023-04-24T08:36:44;4.05;;;3.45;;
22005;SDS011;11167;46.988;15.470;2023-04-24T08:38:46;4.92;;;3.20;;
22005;SDS011;11167;46.988;15.470;2023-04-24T08:40:47;5.28;;;3.65;;
22005;SDS011;11167;46.988;15.470;2023-04-24T08:42:50;4.17;;;3.22;;
22005;SDS011;11167;46.988;15.470;2023-04-24T08:44:54;6.03;;;3.47;;
22005;SDS011;11167;46.988;15.470;2023-04-24T08:46:56;5.97;;;3.60;;
22005;SDS011;11167;46.988;15.470;2023-04-24T08:48:57;5.42;;;3.60;;
22005;SDS011;11167;46.988;15.470;2023-04-24T08:50:59;5.28;;;3.92;;
22005;SDS011;11167;46.988;15.470;2023-04-24T08:53:01;5.65;;;3.50;;
22005;SDS011;11167;46.988;15.470;2023-04-24T08:55:03;4.83;;;3.20;;
22005;SDS011;11167;46.988;15.470;2023-04-24T08:57:04;4.25;;;3.52;;
22005;SDS011;11167;46.988;15.470;2023-04-24T08:59:08;4.12;;;3.00;;
22005;SDS011;11167;46.988;15.470;2023-04-24T09:01:09;3.62;;;3.12;;
22005;SDS011;11167;46.988;15.470;2023-04-24T09:03:11;4.15;;;3.27;;
22005;SDS011;11167;46.988;15.470;2023-04-24T09:07:21;5.55;;;3.42;;
22005;SDS011;11167;46.988;15.470;2023-04-24T09:09:24;4.75;;;3.37;;
22005;SDS011;11167;46.988;15.470;2023-04-24T09:11:26;4.22;;;2.98;;
22005;SDS011;11167;46.988;15.470;2023-04-24T09:13:27;3.92;;;3.02;;
22005;SDS011;11167;46.988;15.470;2023-04-24T09:15:29;3.50;;;3.00;;
22005;SDS011;11167;46.988;15.470;2023-04-24T09:17:33;3.83;;;2.87;;
22005;SDS011;11167;46.988;15.470;2023-04-24T09:19:35;4.58;;;2.85;;
22005;SDS011;11167;46.988;15.470;2023-04-24T09:21:37;3.80;;;2.98;;
22005;SDS011;11167;46.988;15.470;2023-04-24T09:23:38;4.15;;;2.75;;
22005;SDS011;11167;46.988;15.470;2023-04-24T09:25:39;4.30;;;2.90;;
22005;SDS011;11167;46.988;15.470;2023-04-24T09:27:44;4.72;;;2.95;;
22005;SDS011;11167;46.988;15.470;2023-04-24T09:29:55;4.12;;;2.75;;
22005;SDS011;11167;46.988;15.470;2023-04-24T09:31:55;3.33;;;2.50;;
22005;SDS011;11167;46.988;15.470;2023-04-24T09:33:57;3.75;;;2.83;;
22005;SDS011;11167;46.988;15.470;2023-04-24T09:36:00;3.72;;;3.08;;
22005;SDS011;11167;46.988;15.470;2023-04-24T09:38:01;3.47;;;2.80;;
22005;SDS011;11167;46.988;15.470;2023-04-24T09:40:18;3.17;;;2.62;;
22005;SDS011;11167;46.988;15.470;2023-04-24T09:42:21;3.02;;;2.50;;
22005;SDS011;11167;46.988;15.470;2023-04-24T09:44:24;3.55;;;2.72;;
22005;SDS011;11167;46.988;15.470;2023-04-24T09:46:30;4.27;;;3.03;;
22005;SDS011;11167;46.988;15.470;2023-04-24T09:48:39;4.45;;;2.90;;
22005;SDS011;11167;46.988;15.470;2023-04-24T09:50:38;5.12;;;2.83;;
22005;SDS011;11167;46.988;15.470;2023-04-24T09:52:45;3.25;;;2.70;;
22005;SDS011;11167;46.988;15.470;2023-04-24T09:54:52;3.42;;;2.80;;
22005;SDS011;11167;46.988;15.470;2023-04-24T09:56:54;3.65;;;2.80;;
22005;SDS011;11167;46.988;15.470;2023-04-24T09:59:01;3.30;;;2.60;;
22005;SDS011;11167;46.988;15.470;2023-04-24T10:01:08;3.00;;;2.45;;
22005;SDS011;11167;46.988;15.470;2023-04-24T10:03:09;4.15;;;2.33;;
22005;SDS011;11167;46.988;15.470;2023-04-24T10:05:11;3.05;;;2.37;;
22005;SDS011;11167;46.988;15.470;2023-04-24T10:07:12;2.42;;;2.10;;
22005;SDS011;11167;46.988;15.470;2023-04-24T10:09:19;3.08;;;2.25;;
22005;SDS011;11167;46.988;15.470;2023-04-24T10:11:21;2.75;;;2.25;;
22005;SDS011;11167;46.988;15.470;2023-04-24T10:13:23;2.65;;;2.15;;
22005;SDS011;11167;46.988;15.470;2023-04-24T10:15:24;2.87;;;2.27;;
22005;SDS011;11167;46.988;15.470;2023-04-24T10:17:27;2.20;;;1.98;;
22005;SDS011;11167;46.988;15.470;2023-04-24T10:19:29;2.55;;;1.80;;
22005;SDS011;11167;46.988;15.470;2023-04-24T10:21:32;1.72;;;1.62;;
22005;SDS011;11167;46.988;15.470;2023-04-24T10:23:35;2.60;;;1.60;;
22005;SDS011;11167;46.988;15.470;2023-04-24T10:25:37;2.80;;;1.37;;
22005;SDS011;11167;46.988;15.470;2023-04-24T10:27:38;3.52;;;1.62;;
22005;SDS011;11167;46.988;15.470;2023-04-24T10:29:40;1.52;;;1.37;;
22005;SDS011;11167;46.988;15.470;2023-04-24T10:31:45;1.82;;;1.37;;
22005;SDS011;11167;46.988;15.470;2023-04-24T10:33:47;1.85;;;1.50;;
22005;SDS011;11167;46.988;15.470;2023-04-24T10:35:51;2.67;;;1.37;;
22005;SDS011;11167;46.988;15.470;2023-04-24T10:37:57;1.67;;;1.20;;
22005;SDS011;11167;46.988;15.470;2023-04-24T10:40:01;1.22;;;1.12;;
22005;SDS011;11167;46.988;15.470;2023-04-24T10:42:11;1.50;;;1.40;;
22005;SDS011;11167;46.988;15.470;2023-04-24T10:46:38;1.20;;;1.10;;
22005;SDS011;11167;46.988;15.470;2023-04-24T10:48:43;1.20;;;1.10;;
22005;SDS011;11167;46.988;15.470;2023-04-24T10:50:50;1.42;;;1.12;;
22005;SDS011;11167;46.988;15.470;2023-04-24T10:53:04;1.60;;;1.25;;
22005;SDS011;11167;46.988;15.470;2023-04-24T10:55:09;3.10;;;1.32;;
22005;SDS011;11167;46.988;15.470;2023-04-24T10:59:34;1.10;;;1.00;;
22005;SDS011;11167;46.988;15.470;2023-04-24T11:01:35;1.12;;;1.02;;
22005;SDS011;11167;46.988;15.470;2023-04-24T11:03:38;1.30;;;1.10;;
22005;SDS011;11167;46.988;15.470;2023-04-24T11:05:54;1.10;;;1.00;;
22005;SDS011;11167;46.988;15.470;2023-04-24T11:08:15;1.40;;;1.10;;
22005;SDS011;11167;46.988;15.470;2023-04-24T11:10:25;1.12;;;0.93;;
22005;SDS011;11167;46.988;15.470;2023-04-24T11:12:27;1.05;;;0.78;;
22005;SDS011;11167;46.988;15.470;2023-04-24T11:14:29;0.98;;;0.90;;
22005;SDS011;11167;46.988;15.470;2023-04-24T11:16:34;0.90;;;0.80;;
22005;SDS011;11167;46.988;15.470;2023-04-24T11:18:44;1.10;;;1.00;;
22005;SDS011;11167;46.988;15.470;2023-04-24T11:20:49;0.70;;;0.70;;
22005;SDS011;11167;46.988;15.470;2023-04-24T11:22:51;1.00;;;0.90;;
22005;SDS011;11167;46.988;15.470;2023-04-24T11:24:54;0.82;;;0.78;;
22005;SDS011;11167;46.988;15.470;2023-04-24T11:27:05;0.88;;;0.78;;
22005;SDS011;11167;46.988;15.470;2023-04-24T11:29:07;0.72;;;0.72;;
22005;SDS011;11167;46.988;15.470;2023-04-24T11:33:38;0.60;;;0.60;;
22005;SDS011;11167;46.988;15.470;2023-04-24T11:35:40;1.45;;;0.78;;
22005;SDS011;11167;46.988;15.470;2023-04-24T11:37:45;0.75;;;0.70;;
22005;SDS011;11167;46.988;15.470;2023-04-24T11:39:57;0.60;;;0.60;;
22005;SDS011;11167;46.988;15.470;2023-04-24T11:42:01;1.02;;;0.65;;
22005;SDS011;11167;46.988;15.470;2023-04-24T11:44:01;2.30;;;0.68;;
22005;SDS011;11167;46.988;15.470;2023-04-24T11:46:03;0.87;;;0.80;;
22005;SDS011;11167;46.988;15.470;2023-04-24T11:48:05;0.93;;;0.70;;
22005;SDS011;11167;46.988;15.470;2023-04-24T11:50:11;0.70;;;0.60;;
22005;SDS011;11167;46.988;15.470;2023-04-24T11:52:11;0.70;;;0.65;;
22005;SDS011;11167;46.988;15.470;2023-04-24T11:54:15;0.80;;;0.60;;
22005;SDS011;11167;46.988;15.470;2023-04-24T11:56:17;0.72;;;0.60;;
22005;SDS011;11167;46.988;15.470;2023-04-24T11:58:22;0.72;;;0.60;;
22005;SDS011;11167;46.988;15.470;2023-04-24T12:00:31;0.62;;;0.60;;
22005;SDS011;11167;46.988;15.470;2023-04-24T12:02:31;1.02;;;0.72;;
22005;SDS011;11167;46.988;15.470;2023-04-24T12:04:38;0.60;;;0.60;;
22005;SDS011;11167;46.988;15.470;2023-04-24T12:07:04;0.53;;;0.50;;
22005;SDS011;11167;46.988;15.470;2023-04-24T12:11:10;0.65;;;0.65;;
22005;SDS011;11167;46.988;15.470;2023-04-24T12:13:12;1.32;;;0.70;;
22005;SDS011;11167;46.988;15.470;2023-04-24T12:15:15;0.95;;;0.72;;
22005;SDS011;11167;46.988;15.470;2023-04-24T12:17:23;0.68;;;0.68;;